createdAt,value
2022-08-20T00:01:42.075Z,85.32
2022-08-20T00:04:09.373Z,85.76
2022-08-20T00:06:36.748Z,86.23
2022-08-20T00:09:04.673Z,86.72
2022-08-20T00:11:33.645Z,85.89
2022-08-20T00:14:04.864Z,86.22
2022-08-20T00:16:34.981Z,86.44
2022-08-20T00:19:27.158Z,86.61
2022-08-20T00:21:58.051Z,86.20
2022-08-20T00:24:26.511Z,86.79
2022-08-20T00:26:53.709Z,86.02
2022-08-20T00:29:24.754Z,86.43
2022-08-20T00:31:51.920Z,86.36
2022-08-20T00:34:19.236Z,86.54
2022-08-20T00:36:47.021Z,86.28
2022-08-20T00:39:15.989Z,86.34
2022-08-20T00:42:02.279Z,86.75
2022-08-20T00:48:56.048Z,85.60
2022-08-20T00:51:30.689Z,85.66
2022-08-20T00:54:11.028Z,85.87
2022-08-20T00:56:40.868Z,85.63
2022-08-20T00:59:12.737Z,85.19
2022-08-20T01:01:55.490Z,85.71
2022-08-20T01:04:27.897Z,85.59
2022-08-20T01:06:55.800Z,85.44
2022-08-20T01:09:49.784Z,85.13
2022-08-20T01:12:12.475Z,85.69
2022-08-20T01:14:47.520Z,84.58
2022-08-20T01:17:19.013Z,84.44
2022-08-20T01:20:01.014Z,83.60
2022-08-20T01:26:19.387Z,84.30
2022-08-20T01:29:09.054Z,83.89
2022-08-20T01:31:38.618Z,84.03
2022-08-20T01:34:08.996Z,83.91
2022-08-20T01:36:46.290Z,84.64
2022-08-20T01:39:21.321Z,84.23
2022-08-20T01:41:57.075Z,85.08
2022-08-20T01:44:29.729Z,84.70
2022-08-20T01:47:10.480Z,85.47
2022-08-20T01:49:44.002Z,85.11
2022-08-20T01:52:19.952Z,83.01
2022-08-20T01:54:47.162Z,84.08
2022-08-20T01:57:17.089Z,82.98
2022-08-20T01:59:45.216Z,82.79
2022-08-20T02:02:12.967Z,82.73
2022-08-20T02:04:41.027Z,83.10
2022-08-20T02:07:14.907Z,83.39
2022-08-20T02:09:42.277Z,82.60
2022-08-20T02:12:10.814Z,82.77
2022-08-20T02:14:46.932Z,82.64
2022-08-20T02:17:15.643Z,82.27
2022-08-20T02:20:11.091Z,82.91
2022-08-20T02:22:50.335Z,82.58
2022-08-20T02:25:19.925Z,82.83
2022-08-20T02:27:52.087Z,83.28
2022-08-20T02:30:27.778Z,83.26
2022-08-20T02:32:59.458Z,82.43
2022-08-20T02:35:27.417Z,82.36
2022-08-20T02:37:55.293Z,82.48
2022-08-20T02:40:27.178Z,82.49
2022-08-20T02:42:59.142Z,82.19
2022-08-20T02:45:26.475Z,82.86
2022-08-20T02:47:54.217Z,82.49
2022-08-20T02:50:22.509Z,82.56
2022-08-20T02:52:51.676Z,81.42
2022-08-20T02:55:27.937Z,81.63
2022-08-20T02:57:59.092Z,82.25
2022-08-20T03:00:32.202Z,82.56
2022-08-20T03:03:08.146Z,82.26
2022-08-20T03:05:36.551Z,81.85
2022-08-20T03:08:08.466Z,82.38
2022-08-20T03:10:36.656Z,82.43
2022-08-20T03:13:05.167Z,82.35
2022-08-20T03:15:33.934Z,82.48
2022-08-20T03:18:01.233Z,82.65
2022-08-20T03:20:29.070Z,82.83
2022-08-20T03:22:56.829Z,82.41
2022-08-20T03:25:24.186Z,81.94
2022-08-20T03:27:55.022Z,82.38
2022-08-20T03:30:24.244Z,82.22
2022-08-20T03:32:51.634Z,82.59
2022-08-20T03:35:21.244Z,83.55
2022-08-20T03:37:48.866Z,83.63
2022-08-20T03:40:38.719Z,83.41
2022-08-20T03:43:08.861Z,82.70
2022-08-20T03:45:38.594Z,82.94
2022-08-20T03:48:07.823Z,83.12
2022-08-20T03:50:35.370Z,83.27
2022-08-20T03:53:02.615Z,83.12
2022-08-20T03:55:32.179Z,83.72
2022-08-20T03:58:03.825Z,82.91
2022-08-20T04:03:28.874Z,83.04
2022-08-20T04:05:56.009Z,82.98
2022-08-20T04:08:26.855Z,83.33
2022-08-20T04:10:57.628Z,83.60
2022-08-20T04:13:25.987Z,83.63
2022-08-20T04:15:55.564Z,82.87
2022-08-20T04:18:25.794Z,83.37
2022-08-20T04:20:53.883Z,82.63
2022-08-20T04:23:22.287Z,82.92
2022-08-20T04:25:49.805Z,83.17
2022-08-20T04:28:30.034Z,83.35
2022-08-20T04:30:59.890Z,83.23
2022-08-20T04:33:33.927Z,82.12
2022-08-20T04:36:06.078Z,81.98
2022-08-20T04:38:50.428Z,81.83
2022-08-20T04:41:23.252Z,81.29
2022-08-20T04:43:56.137Z,81.71
2022-08-20T04:46:28.504Z,81.17
2022-08-20T04:48:56.688Z,80.64
2022-08-20T04:51:24.493Z,80.77
2022-08-20T04:56:45.529Z,82.45
2022-08-20T04:59:12.605Z,81.58
2022-08-20T05:01:39.788Z,81.41
2022-08-20T05:04:06.974Z,81.68
2022-08-20T05:06:38.605Z,82.18
2022-08-20T05:09:05.824Z,82.40
2022-08-20T05:11:36.754Z,81.44
2022-08-20T05:14:08.585Z,81.72
2022-08-20T05:16:38.434Z,83.26
2022-08-20T05:19:09.096Z,82.37
2022-08-20T05:21:37.845Z,82.60
2022-08-20T05:28:32.868Z,81.75
2022-08-20T05:31:07.196Z,82.49
2022-08-20T05:33:34.302Z,84.49
2022-08-20T05:36:02.091Z,83.81
2022-08-20T05:38:29.319Z,83.81
2022-08-20T05:40:56.577Z,83.78
2022-08-20T05:43:24.192Z,83.67
2022-08-20T05:45:56.070Z,83.86
2022-08-20T05:48:25.461Z,84.22
2022-08-20T05:50:54.483Z,85.21
2022-08-20T05:53:23.338Z,84.95
2022-08-20T05:55:50.685Z,86.32
2022-08-20T05:58:26.266Z,85.78
2022-08-20T06:00:54.846Z,85.91
2022-08-20T06:03:58.136Z,86.28
2022-08-20T06:06:45.071Z,86.04
2022-08-20T06:09:12.749Z,85.76
2022-08-20T06:11:39.872Z,86.86
2022-08-20T06:14:07.068Z,87.30
2022-08-20T06:16:34.329Z,86.44
2022-08-20T06:19:11.342Z,86.81
2022-08-20T06:21:40.411Z,86.74
2022-08-20T06:24:08.405Z,86.01
2022-08-20T06:26:36.358Z,86.55
2022-08-20T06:29:06.881Z,87.48
2022-08-20T06:31:35.104Z,87.32
2022-08-20T06:34:02.212Z,86.39
2022-08-20T06:36:29.317Z,86.99
2022-08-20T06:38:58.322Z,85.94
2022-08-20T06:41:35.992Z,87.21
2022-08-20T06:44:07.522Z,86.55
2022-08-20T06:46:36.191Z,86.67
2022-08-20T06:49:05.961Z,86.43
2022-08-20T06:51:34.368Z,85.87
2022-08-20T06:54:01.482Z,85.98
2022-08-20T06:56:28.601Z,86.35
2022-08-20T06:58:55.770Z,86.27
2022-08-20T07:01:23.056Z,86.55
2022-08-20T07:03:54.125Z,85.95
2022-08-20T07:06:25.818Z,86.30
2022-08-20T07:08:55.250Z,86.18
2022-08-20T07:11:27.355Z,86.00
2022-08-20T07:13:58.776Z,87.16
2022-08-20T07:16:27.243Z,87.12
2022-08-20T07:18:54.508Z,87.65
2022-08-20T07:21:21.626Z,87.24
2022-08-20T07:23:49.441Z,86.94
2022-08-20T07:26:17.327Z,86.69
2022-08-20T07:28:44.545Z,86.41
2022-08-20T07:31:31.314Z,86.15
2022-08-20T07:33:59.799Z,86.38
2022-08-20T07:36:27.346Z,87.05
2022-08-20T07:38:54.682Z,87.08
2022-08-20T07:41:24.110Z,88.37
2022-08-20T07:43:51.300Z,85.59
2022-08-20T07:46:21.582Z,86.11
2022-08-20T07:48:50.644Z,86.32
2022-08-20T07:51:19.986Z,86.12
2022-08-20T07:53:48.694Z,85.06
2022-08-20T07:56:21.308Z,84.77
2022-08-20T07:58:52.420Z,82.43
2022-08-20T08:01:22.471Z,79.62
2022-08-20T08:03:50.706Z,76.46
2022-08-20T08:06:29.741Z,74.92
2022-08-20T08:09:02.246Z,77.01
2022-08-20T08:11:29.854Z,76.49
2022-08-20T08:13:58.585Z,76.61
2022-08-20T08:16:25.802Z,76.79
2022-08-20T08:18:56.935Z,76.86
2022-08-20T08:21:25.218Z,78.10
2022-08-20T08:23:53.442Z,76.62
2022-08-20T08:26:22.415Z,77.43
2022-08-20T08:28:49.522Z,77.05
2022-08-20T08:31:16.758Z,77.50
2022-08-20T08:33:43.934Z,78.52
2022-08-20T08:36:13.616Z,77.05
2022-08-20T08:38:43.648Z,76.88
2022-08-20T08:41:13.867Z,78.80
2022-08-20T08:43:46.680Z,77.59
2022-08-20T08:46:18.208Z,78.87
2022-08-20T08:48:47.805Z,81.04
2022-08-20T08:51:24.246Z,79.39
2022-08-20T08:53:54.783Z,80.72
2022-08-20T08:56:28.773Z,79.63
2022-08-20T08:59:00.707Z,79.49
2022-08-20T09:01:55.233Z,79.02
2022-08-20T09:04:21.765Z,79.26
2022-08-20T09:06:53.464Z,79.44
2022-08-20T09:09:31.443Z,79.04
2022-08-20T09:12:20.429Z,79.51
2022-08-20T09:14:48.936Z,78.67
2022-08-20T09:17:17.278Z,79.40
2022-08-20T09:19:45.768Z,79.12
2022-08-20T09:22:15.890Z,78.98
2022-08-20T09:24:44.137Z,77.83
2022-08-20T09:27:12.075Z,78.55
2022-08-20T09:29:39.697Z,77.98
2022-08-20T09:32:11.148Z,78.19
2022-08-20T09:34:44.856Z,76.91
2022-08-20T09:37:12.670Z,76.70
2022-08-20T09:39:40.517Z,76.32
2022-08-20T09:42:14.433Z,75.77
2022-08-20T09:44:41.697Z,76.23
2022-08-20T09:47:10.289Z,75.87
2022-08-20T09:49:38.315Z,77.28
2022-08-20T09:52:08.256Z,75.59
2022-08-20T09:54:36.715Z,75.92
2022-08-20T09:57:06.665Z,75.21
2022-08-20T09:59:35.353Z,75.38
2022-08-20T10:02:03.485Z,75.45
2022-08-20T10:04:32.587Z,75.13
2022-08-20T10:06:59.672Z,75.27
2022-08-20T10:09:26.885Z,76.00
2022-08-20T10:11:54.017Z,77.02
2022-08-20T10:14:21.118Z,76.84
2022-08-20T10:16:59.980Z,76.28
2022-08-20T10:19:30.192Z,75.89
2022-08-20T10:21:58.448Z,76.19
2022-08-20T10:24:26.078Z,77.29
2022-08-20T10:28:02.508Z,76.39
2022-08-20T10:30:54.931Z,76.39
2022-08-20T10:33:22.068Z,76.25
2022-08-20T10:35:49.282Z,75.63
2022-08-20T10:38:21.488Z,74.98
2022-08-20T10:40:52.209Z,74.61
2022-08-20T10:43:19.872Z,73.01
2022-08-20T10:45:47.068Z,73.17
2022-08-20T10:48:17.210Z,71.46
2022-08-20T10:51:12.808Z,71.52
2022-08-20T10:53:40.816Z,70.26
2022-08-20T10:56:07.929Z,69.93
2022-08-20T10:58:39.673Z,69.49
2022-08-20T11:01:08.982Z,70.24
2022-08-20T11:03:36.223Z,69.86
2022-08-20T11:06:03.790Z,70.35
2022-08-20T11:08:34.494Z,70.89
2022-08-20T11:11:04.725Z,71.86
2022-08-20T11:13:33.047Z,71.47
2022-08-20T11:16:01.278Z,71.20
2022-08-20T11:18:29.405Z,70.37
2022-08-20T11:20:57.320Z,70.15
2022-08-20T11:23:24.739Z,70.28
2022-08-20T11:25:52.061Z,69.94
2022-08-20T11:28:31.780Z,69.87
2022-08-20T11:31:00.528Z,69.77
2022-08-20T11:33:27.626Z,70.94
2022-08-20T11:35:55.621Z,71.37
2022-08-20T11:38:23.725Z,70.58
2022-08-20T11:40:50.930Z,70.37
2022-08-20T11:43:18.542Z,68.63
2022-08-20T11:45:52.866Z,69.76
2022-08-20T11:48:20.553Z,69.74
2022-08-20T11:50:48.767Z,70.37
2022-08-20T11:53:16.222Z,67.96
2022-08-20T11:55:44.096Z,67.08
2022-08-20T11:58:11.702Z,69.94
2022-08-20T12:00:39.188Z,68.49
2022-08-20T12:03:09.130Z,68.45
2022-08-20T12:05:43.420Z,70.01
2022-08-20T12:08:26.442Z,67.30
2022-08-20T12:10:57.192Z,66.95
2022-08-20T12:13:30.492Z,68.13
2022-08-20T12:15:59.363Z,68.31
2022-08-20T12:18:27.089Z,66.18
2022-08-20T12:20:54.807Z,65.66
2022-08-20T12:23:21.956Z,64.49
2022-08-20T12:25:49.970Z,65.72
2022-08-20T12:28:17.076Z,66.77
2022-08-20T12:30:50.214Z,65.54
2022-08-20T12:33:17.303Z,65.86
2022-08-20T12:35:44.506Z,64.71
2022-08-20T12:38:11.622Z,66.69
2022-08-20T12:40:39.346Z,66.55
2022-08-20T12:43:06.963Z,64.09
2022-08-20T12:45:34.801Z,64.76
2022-08-20T12:48:10.587Z,63.61
2022-08-20T12:50:41.032Z,62.52
2022-08-20T12:53:08.777Z,62.89
2022-08-20T12:55:36.036Z,64.79
2022-08-20T12:58:05.074Z,64.79
2022-08-20T13:00:38.027Z,64.06
2022-08-20T13:03:07.195Z,64.86
2022-08-20T13:05:35.693Z,65.23
2022-08-20T13:08:07.964Z,65.55
2022-08-20T13:10:38.278Z,64.84
2022-08-20T13:13:05.386Z,64.71
2022-08-20T13:15:33.198Z,63.90
2022-08-20T13:18:02.516Z,64.55
2022-08-20T13:20:34.562Z,64.38
2022-08-20T13:23:04.317Z,63.19
2022-08-20T13:25:32.443Z,63.93
2022-08-20T13:28:01.377Z,62.79
2022-08-20T13:30:29.419Z,63.24
2022-08-20T13:33:00.649Z,63.15
2022-08-20T13:35:27.915Z,62.91
2022-08-20T13:37:55.931Z,62.11
2022-08-20T13:40:23.231Z,61.56
2022-08-20T13:42:50.456Z,61.18
2022-08-20T13:45:17.768Z,61.04
2022-08-20T13:47:44.984Z,61.89
2022-08-20T13:50:15.327Z,61.12
2022-08-20T13:52:43.553Z,61.31
2022-08-20T13:55:13.471Z,61.56
2022-08-20T13:57:43.149Z,61.95
2022-08-20T14:00:14.541Z,60.83
2022-08-20T14:02:42.546Z,61.24
2022-08-20T14:05:11.206Z,61.71
2022-08-20T14:07:42.625Z,61.50
2022-08-20T14:10:12.883Z,62.51
2022-08-20T14:12:40.027Z,62.26
2022-08-20T14:15:11.832Z,62.31
2022-08-20T14:17:42.823Z,63.51
2022-08-20T14:20:16.007Z,62.14
2022-08-20T14:22:45.144Z,61.72
2022-08-20T14:25:14.613Z,61.57
2022-08-20T14:27:42.947Z,61.45
2022-08-20T14:30:16.728Z,61.37
2022-08-20T14:32:44.272Z,62.64
2022-08-20T14:35:11.849Z,63.06
2022-08-20T14:37:42.860Z,62.52
2022-08-20T14:40:14.064Z,63.57
2022-08-20T14:42:43.263Z,63.88
2022-08-20T14:45:14.320Z,62.67
2022-08-20T14:47:51.886Z,62.42
2022-08-20T14:50:33.603Z,62.86
2022-08-20T14:53:01.271Z,62.13
2022-08-20T14:55:32.211Z,61.58
2022-08-20T14:57:59.529Z,62.40
2022-08-20T15:00:30.539Z,62.84
2022-08-20T15:02:58.292Z,63.60
2022-08-20T15:05:26.145Z,63.35
2022-08-20T15:08:23.194Z,63.75
2022-08-20T15:10:55.997Z,64.63
2022-08-20T15:13:23.061Z,64.08
2022-08-20T15:15:50.246Z,64.17
2022-08-20T15:18:18.510Z,64.56
2022-08-20T15:20:45.703Z,64.71
2022-08-20T15:23:12.899Z,64.92
2022-08-20T15:25:40.041Z,64.33
2022-08-20T15:28:09.593Z,64.50
2022-08-20T15:30:39.900Z,65.17
2022-08-20T15:33:07.723Z,64.83
2022-08-20T15:35:35.464Z,64.67
2022-08-20T15:38:02.646Z,64.69
2022-08-20T15:40:32.360Z,63.58
2022-08-20T15:43:01.746Z,63.82
2022-08-20T15:45:30.089Z,63.97
2022-08-20T15:48:09.314Z,62.86
2022-08-20T15:51:03.408Z,63.35
2022-08-20T15:53:42.470Z,63.26
2022-08-20T15:56:16.529Z,63.10
2022-08-20T15:58:58.959Z,62.91
2022-08-20T16:01:50.462Z,62.87
2022-08-20T16:04:51.250Z,63.20
2022-08-20T16:07:39.131Z,64.09
2022-08-20T16:10:17.136Z,63.61
2022-08-20T16:12:49.745Z,64.01
2022-08-20T16:15:35.671Z,64.42
2022-08-20T16:18:25.984Z,64.52
2022-08-20T16:21:00.597Z,63.83
2022-08-20T16:23:36.917Z,63.97
2022-08-20T16:26:15.935Z,64.12
2022-08-20T16:28:43.052Z,65.19
2022-08-20T16:31:14.486Z,64.24
2022-08-20T16:33:48.357Z,65.51
2022-08-20T16:36:28.941Z,66.20
2022-08-20T16:39:04.713Z,66.07
2022-08-20T16:41:37.993Z,65.70
2022-08-20T16:44:35.668Z,64.69
2022-08-20T16:47:21.228Z,65.41
2022-08-20T16:50:12.755Z,65.00
2022-08-20T16:52:42.494Z,65.49
2022-08-20T16:55:10.298Z,65.08
2022-08-20T16:57:37.669Z,65.25
2022-08-20T17:00:16.373Z,65.25
2022-08-20T17:03:05.705Z,65.15
2022-08-20T17:05:38.928Z,64.83
2022-08-20T17:08:08.237Z,65.55
2022-08-20T17:10:54.594Z,66.12
2022-08-20T17:13:28.107Z,66.67
2022-08-20T17:16:02.414Z,66.75
2022-08-20T17:18:38.631Z,66.74
2022-08-20T17:21:14.801Z,67.24
2022-08-20T17:23:56.313Z,67.26
2022-08-20T17:26:35.332Z,67.81
2022-08-20T17:29:23.913Z,68.66
2022-08-20T17:32:01.391Z,69.22
2022-08-20T17:34:32.798Z,69.46
2022-08-20T17:37:19.870Z,69.59
2022-08-20T17:39:51.924Z,70.69
2022-08-20T17:42:25.603Z,69.97
2022-08-20T17:45:21.564Z,70.35
2022-08-20T17:47:49.059Z,70.59
2022-08-20T17:50:20.133Z,72.27
2022-08-20T17:52:58.837Z,72.41
2022-08-20T17:55:26.477Z,72.78
2022-08-20T17:57:57.809Z,72.32
2022-08-20T18:00:27.972Z,72.02
2022-08-20T18:03:09.112Z,72.10
2022-08-20T18:05:38.767Z,72.62
2022-08-20T18:08:17.176Z,72.76
2022-08-20T18:10:59.836Z,72.13
2022-08-20T18:14:08.758Z,73.62
2022-08-20T18:17:10.665Z,73.47
2022-08-20T18:19:56.358Z,73.71
2022-08-20T18:22:28.824Z,73.94
2022-08-20T18:25:11.120Z,74.39
2022-08-20T18:27:46.361Z,74.40
2022-08-20T18:30:21.032Z,73.00
2022-08-20T18:32:59.899Z,72.76
2022-08-20T18:35:45.761Z,73.66
2022-08-20T18:38:28.269Z,73.36
2022-08-20T18:41:26.757Z,74.41
2022-08-20T18:44:11.121Z,73.78
2022-08-20T18:46:53.804Z,74.30
2022-08-20T18:49:30.425Z,74.34
2022-08-20T18:52:07.734Z,74.19
2022-08-20T18:54:35.421Z,75.10
2022-08-20T18:57:40.630Z,75.34
2022-08-20T19:00:16.646Z,75.03
2022-08-20T19:02:58.932Z,75.52
2022-08-20T19:05:36.884Z,75.48
2022-08-20T19:08:05.848Z,75.54
2022-08-20T19:10:54.027Z,76.81
2022-08-20T19:13:46.233Z,76.16
2022-08-20T19:16:22.016Z,76.55
2022-08-20T19:18:54.890Z,78.20
2022-08-20T19:21:26.368Z,78.34
2022-08-20T19:23:57.840Z,78.63
2022-08-20T19:26:28.795Z,78.51
2022-08-20T19:29:02.350Z,77.78
2022-08-20T19:31:34.661Z,78.53
2022-08-20T19:34:19.924Z,78.73
2022-08-20T19:37:09.114Z,78.59
2022-08-20T19:39:50.917Z,78.21
2022-08-20T19:42:32.972Z,78.63
2022-08-20T19:45:02.955Z,78.72
2022-08-20T19:47:33.698Z,79.13
2022-08-20T19:50:26.390Z,79.61
2022-08-20T19:53:14.552Z,79.60
2022-08-20T19:55:42.252Z,79.37
2022-08-20T19:58:16.815Z,79.49
2022-08-20T20:00:55.451Z,79.84
2022-08-20T20:03:26.009Z,80.04
2022-08-20T20:06:16.573Z,80.29
2022-08-20T20:08:58.535Z,81.11
2022-08-20T20:11:45.082Z,80.20
2022-08-20T20:14:15.013Z,80.61
2022-08-20T20:16:42.591Z,80.09
2022-08-20T20:19:28.460Z,80.91
2022-08-20T20:22:19.089Z,81.36
2022-08-20T20:24:57.552Z,82.09
2022-08-20T20:27:26.838Z,82.56
2022-08-20T20:30:03.834Z,82.24
2022-08-20T20:32:33.821Z,82.68
2022-08-20T20:35:04.786Z,82.84
2022-08-20T20:37:49.656Z,82.65
2022-08-20T20:40:30.966Z,83.24
2022-08-20T20:43:05.228Z,83.34
2022-08-20T20:45:35.805Z,83.55
2022-08-20T20:48:14.510Z,83.67
2022-08-20T20:50:42.337Z,83.94
2022-08-20T20:53:09.755Z,84.07
2022-08-20T20:55:38.723Z,84.42
2022-08-20T20:58:06.014Z,84.30
2022-08-20T21:00:34.507Z,84.63
2022-08-20T21:03:04.387Z,84.45
2022-08-20T21:05:32.469Z,83.66
2022-08-20T21:08:06.065Z,83.45
2022-08-20T21:10:37.083Z,82.57
2022-08-20T21:13:08.070Z,82.02
2022-08-20T21:15:37.806Z,81.94
2022-08-20T21:18:06.824Z,82.24
2022-08-20T21:20:34.236Z,82.09
2022-08-20T21:23:01.487Z,82.21
2022-08-20T21:25:31.402Z,83.00
2022-08-20T21:27:58.709Z,82.99
2022-08-20T21:30:26.601Z,83.26
2022-08-20T21:32:54.078Z,83.67
2022-08-20T21:35:21.433Z,83.91
2022-08-20T21:37:48.701Z,83.64
2022-08-20T21:40:18.091Z,83.73
2022-08-20T21:42:46.432Z,83.54
2022-08-20T21:45:18.698Z,83.45
2022-08-20T21:47:49.120Z,83.25
2022-08-20T21:50:18.631Z,83.31
2022-08-20T21:52:52.491Z,83.24
2022-08-20T21:55:29.895Z,83.16
2022-08-20T21:57:58.608Z,82.89
2022-08-20T22:00:57.874Z,83.25
2022-08-20T22:03:32.382Z,83.08
2022-08-20T22:06:00.928Z,82.94
2022-08-20T22:08:28.482Z,83.05
2022-08-20T22:10:57.759Z,81.87
2022-08-20T22:13:31.280Z,80.54
2022-08-20T22:16:01.071Z,80.31
2022-08-20T22:18:28.321Z,80.63
2022-08-20T22:20:55.841Z,80.69
2022-08-20T22:23:23.537Z,80.67
2022-08-20T22:25:51.317Z,80.38
2022-08-20T22:28:19.172Z,80.64
2022-08-20T22:30:46.662Z,80.47
2022-08-20T22:33:19.892Z,80.69
2022-08-20T22:35:49.414Z,81.20
2022-08-20T22:38:17.187Z,80.76
2022-08-20T22:40:47.753Z,80.61
2022-08-20T22:43:15.773Z,81.05
2022-08-20T22:45:45.634Z,81.47
2022-08-20T22:48:16.025Z,81.75
2022-08-20T22:50:43.354Z,82.31
2022-08-20T22:53:12.146Z,81.75
2022-08-20T22:55:39.358Z,81.55
2022-08-20T22:58:07.196Z,82.08
2022-08-20T23:00:35.046Z,82.41
2022-08-20T23:03:04.052Z,82.50
2022-08-20T23:05:33.579Z,81.77
2022-08-20T23:08:01.225Z,82.15
2022-08-20T23:10:31.184Z,82.25
2022-08-20T23:15:50.259Z,82.26
2022-08-20T23:18:19.461Z,82.14
2022-08-20T23:20:50.738Z,82.03
2022-08-20T23:23:18.741Z,82.42
2022-08-20T23:25:46.428Z,82.29
2022-08-20T23:28:13.887Z,81.67
2022-08-20T23:30:40.991Z,81.50
2022-08-20T23:33:08.427Z,81.90
2022-08-20T23:35:38.608Z,82.20
2022-08-20T23:38:06.495Z,82.27
2022-08-20T23:40:34.626Z,81.94
2022-08-20T23:43:01.866Z,82.39
2022-08-20T23:45:29.992Z,82.29
2022-08-20T23:47:57.360Z,81.40
2022-08-20T23:50:27.523Z,81.01
2022-08-20T23:52:56.102Z,81.45
2022-08-20T23:55:23.668Z,81.89
2022-08-20T23:57:51.159Z,81.41
